Time,TemperatureF,DewpointF,PressureIn,WindDirection,WindDirectionDegrees,WindSpeedMPH,WindSpeedGustMPH,Humidity,HourlyPrecipIn,Conditions,Clouds,dailyrainin,SoftwareType,DateUTC
2013-09-21 00:04:00,79.9,73.5,29.75,East,97,0.0,12.0,81,0.00,,,0.00,Wunderground v.1.13,2013-09-21 05:04:00,
2013-09-21 00:09:00,79.9,73.5,29.74,WNW,294,0.0,12.0,81,0.00,,,0.00,Wunderground v.1.13,2013-09-21 05:09:00,
2013-09-21 00:14:00,80.1,73.7,29.74,SW,226,0.0,12.0,81,0.00,,,0.00,Wunderground v.1.13,2013-09-21 05:14:00,
2013-09-21 00:20:00,80.1,73.7,29.74,WNW,287,0.0,12.0,81,0.00,,,0.00,Wunderground v.1.13,2013-09-21 05:20:00,
2013-09-21 00:25:00,80.1,73.7,29.73,SSE,151,0.0,12.0,81,0.00,,,0.00,Wunderground v.1.13,2013-09-21 05:25:00,
2013-09-21 00:30:00,80.1,73.7,29.73,ESE,120,0.0,12.0,81,0.00,,,0.00,Wunderground v.1.13,2013-09-21 05:30:00,
2013-09-21 00:36:00,80.1,73.7,29.73,SE,138,0.0,12.0,81,0.00,,,0.00,Wunderground v.1.13,2013-09-21 05:36:00,
2013-09-21 00:41:00,80.1,73.7,29.73,SE,138,0.0,12.0,81,0.00,,,0.00,Wunderground v.1.13,2013-09-21 05:41:00,
2013-09-21 00:46:00,80.3,73.9,29.73,SE,138,0.0,12.0,81,0.00,,,0.00,Wunderground v.1.13,2013-09-21 05:46:00,
2013-09-21 00:51:00,80.3,73.9,29.73,ESE,112,0.0,12.0,81,0.00,,,0.00,Wunderground v.1.13,2013-09-21 05:51:00,
2013-09-21 00:57:00,80.3,73.9,29.73,ESE,106,0.0,12.0,81,0.00,,,0.00,Wunderground v.1.13,2013-09-21 05:57:00,
2013-09-21 01:03:00,80.3,73.9,29.73,ESE,110,0.0,12.0,81,0.00,,,0.00,Wunderground v.1.13,2013-09-21 06:03:00,
2013-09-21 01:08:00,80.3,73.9,29.72,ESE,110,0.0,12.0,81,0.00,,,0.00,Wunderground v.1.13,2013-09-21 06:08:00,
2013-09-21 01:13:00,80.3,73.9,29.72,ESE,110,0.0,12.0,81,0.00,,,0.00,Wunderground v.1.13,2013-09-21 06:13:00,
2013-09-21 01:18:00,80.1,73.7,29.72,ESE,110,0.0,12.0,81,0.00,,,0.00,Wunderground v.1.13,2013-09-21 06:18:00,
2013-09-21 01:24:00,80.1,73.7,29.72,ESE,110,0.0,12.0,81,0.00,,,0.00,Wunderground v.1.13,2013-09-21 06:24:00,
2013-09-21 01:29:00,80.1,73.7,29.72,ESE,110,0.0,12.0,81,0.00,,,0.00,Wunderground v.1.13,2013-09-21 06:29:00,
2013-09-21 01:34:00,80.1,74.1,29.72,ESE,110,0.0,12.0,82,0.00,,,0.00,Wunderground v.1.13,2013-09-21 06:34:00,
2013-09-21 01:39:00,80.1,74.1,29.72,ESE,110,0.0,12.0,82,0.00,,,0.00,Wunderground v.1.13,2013-09-21 06:39:00,
2013-09-21 01:45:00,80.1,74.1,29.72,ESE,110,0.0,12.0,82,0.00,,,0.00,Wunderground v.1.13,2013-09-21 06:45:00,
2013-09-21 01:50:00,80.1,74.1,29.72,ESE,106,0.0,12.0,82,0.00,,,0.00,Wunderground v.1.13,2013-09-21 06:50:00,
2013-09-21 01:55:00,80.1,74.1,29.72,East,85,0.0,12.0,82,0.00,,,0.00,Wunderground v.1.13,2013-09-21 06:55:00,
2013-09-21 02:00:00,80.1,74.1,29.72,East,80,0.0,12.0,82,0.23,,,0.02,Wunderground v.1.13,2013-09-21 07:00:00,
2013-09-21 02:06:00,79.9,73.9,29.72,East,80,0.0,12.0,82,0.09,,,0.02,Wunderground v.1.13,2013-09-21 07:06:00,
2013-09-21 02:11:00,79.8,74.2,29.72,East,80,0.0,12.0,83,0.05,,,0.02,Wunderground v.1.13,2013-09-21 07:11:00,
2013-09-21 02:16:00,79.4,73.8,29.72,East,80,0.0,12.0,83,0.00,,,0.02,Wunderground v.1.13,2013-09-21 07:16:00,
2013-09-21 02:22:00,79.2,73.9,29.70,East,80,0.0,12.0,84,0.00,,,0.02,Wunderground v.1.13,2013-09-21 07:22:00,
2013-09-21 02:27:00,79.0,73.7,29.70,NE,48,0.0,12.0,84,0.00,,,0.02,Wunderground v.1.13,2013-09-21 07:27:00,
2013-09-21 02:32:00,79.0,73.7,29.70,NE,48,0.0,12.0,84,0.00,,,0.02,Wunderground v.1.13,2013-09-21 07:32:00,
2013-09-21 02:38:00,78.8,73.9,29.71,NE,48,0.0,12.0,85,0.00,,,0.02,Wunderground v.1.13,2013-09-21 07:38:00,
2013-09-21 02:43:00,78.8,73.9,29.71,NE,48,0.0,12.0,85,0.00,,,0.02,Wunderground v.1.13,2013-09-21 07:43:00,
2013-09-21 02:48:00,78.6,73.7,29.71,NE,48,0.0,12.0,85,0.00,,,0.02,Wunderground v.1.13,2013-09-21 07:48:00,
2013-09-21 02:53:00,78.5,73.6,29.70,NE,48,0.0,12.0,85,0.00,,,0.02,Wunderground v.1.13,2013-09-21 07:53:00,
2013-09-21 02:59:00,78.3,73.4,29.70,NE,48,0.0,12.0,85,0.00,,,0.02,Wunderground v.1.13,2013-09-21 07:59:00,
2013-09-21 03:04:00,78.3,73.4,29.70,NE,48,0.0,12.0,85,0.00,,,0.02,Wunderground v.1.13,2013-09-21 08:04:00,
2013-09-21 03:09:00,78.1,73.6,29.70,NE,48,0.0,12.0,86,0.00,,,0.02,Wunderground v.1.13,2013-09-21 08:09:00,
2013-09-21 03:15:00,78.1,73.6,29.70,NE,48,0.0,12.0,86,0.00,,,0.02,Wunderground v.1.13,2013-09-21 08:15:00,
2013-09-21 03:20:00,78.1,73.6,29.70,NE,48,0.0,12.0,86,0.00,,,0.02,Wunderground v.1.13,2013-09-21 08:20:00,
2013-09-21 03:25:00,78.1,73.6,29.69,NE,48,0.0,12.0,86,0.00,,,0.02,Wunderground v.1.13,2013-09-21 08:25:00,
2013-09-21 03:30:00,78.1,73.6,29.69,NE,48,0.0,12.0,86,0.00,,,0.02,Wunderground v.1.13,2013-09-21 08:30:00,
2013-09-21 03:36:00,77.9,73.7,29.69,NE,48,0.0,12.0,87,0.00,,,0.02,Wunderground v.1.13,2013-09-21 08:36:00,
2013-09-21 03:41:00,77.9,73.7,29.69,NE,48,0.0,12.0,87,0.00,,,0.02,Wunderground v.1.13,2013-09-21 08:41:00,
2013-09-21 03:46:00,77.7,73.5,29.69,NE,48,0.0,12.0,87,0.00,,,0.02,Wunderground v.1.13,2013-09-21 08:46:00,
2013-09-21 03:52:00,77.7,73.5,29.68,NE,48,0.0,12.0,87,0.00,,,0.02,Wunderground v.1.13,2013-09-21 08:52:00,
2013-09-21 03:57:00,77.6,73.4,29.68,NE,48,0.0,12.0,87,0.00,,,0.02,Wunderground v.1.13,2013-09-21 08:57:00,
2013-09-21 04:02:00,77.4,73.2,29.68,NE,48,0.0,12.0,87,0.00,,,0.02,Wunderground v.1.13,2013-09-21 09:02:00,
2013-09-21 04:08:00,77.4,73.2,29.69,NE,48,0.0,12.0,87,0.00,,,0.02,Wunderground v.1.13,2013-09-21 09:08:00,
2013-09-21 04:13:00,77.2,73.0,29.69,NE,48,0.0,12.0,87,0.00,,,0.02,Wunderground v.1.13,2013-09-21 09:13:00,
2013-09-21 04:18:00,77.0,73.2,29.69,NE,48,0.0,12.0,88,0.00,,,0.02,Wunderground v.1.13,2013-09-21 09:18:00,
2013-09-21 04:23:00,77.0,73.2,29.69,NE,48,0.0,12.0,88,0.00,,,0.02,Wunderground v.1.13,2013-09-21 09:23:00,
2013-09-21 04:29:00,77.0,73.2,29.69,NE,48,0.0,12.0,88,0.00,,,0.02,Wunderground v.1.13,2013-09-21 09:29:00,
2013-09-21 04:34:00,77.0,73.2,29.69,NE,48,0.0,12.0,88,0.00,,,0.02,Wunderground v.1.13,2013-09-21 09:34:00,
2013-09-21 04:40:00,77.0,73.2,29.68,NE,48,0.0,12.0,88,0.00,,,0.02,Wunderground v.1.13,2013-09-21 09:40:00,
2013-09-21 04:46:00,77.0,73.2,29.68,NE,48,0.0,12.0,88,0.00,,,0.02,Wunderground v.1.13,2013-09-21 09:46:00,
2013-09-21 04:51:00,76.8,73.0,29.68,NE,48,0.0,12.0,88,0.00,,,0.02,Wunderground v.1.13,2013-09-21 09:51:00,
2013-09-21 04:56:00,76.8,73.0,29.68,NE,48,0.0,12.0,88,0.00,,,0.02,Wunderground v.1.13,2013-09-21 09:56:00,
2013-09-21 05:01:00,76.8,73.3,29.68,NE,48,0.0,12.0,89,0.00,,,0.02,Wunderground v.1.13,2013-09-21 10:01:00,
2013-09-21 05:07:00,76.8,73.3,29.69,NE,48,0.0,12.0,89,0.00,,,0.02,Wunderground v.1.13,2013-09-21 10:07:00,
2013-09-21 05:12:00,76.8,73.3,29.69,NE,48,0.0,12.0,89,0.00,,,0.02,Wunderground v.1.13,2013-09-21 10:12:00,
2013-09-21 05:17:00,76.8,73.3,29.69,NE,48,0.0,12.0,89,0.00,,,0.02,Wunderground v.1.13,2013-09-21 10:17:00,
2013-09-21 05:23:00,76.8,73.3,29.69,NE,48,0.0,12.0,89,0.00,,,0.02,Wunderground v.1.13,2013-09-21 10:23:00,
2013-09-21 05:28:00,76.8,73.3,29.69,NE,48,0.0,12.0,89,0.00,,,0.02,Wunderground v.1.13,2013-09-21 10:28:00,
2013-09-21 05:33:00,76.8,73.3,29.69,NE,48,0.0,12.0,89,0.00,,,0.02,Wunderground v.1.13,2013-09-21 10:33:00,
2013-09-21 05:38:00,76.8,73.3,29.69,NE,48,0.0,12.0,89,0.00,,,0.02,Wunderground v.1.13,2013-09-21 10:38:00,
2013-09-21 05:44:00,77.0,73.5,29.69,NE,48,0.0,12.0,89,0.00,,,0.02,Wunderground v.1.13,2013-09-21 10:44:00,
2013-09-21 05:49:00,77.0,73.5,29.69,NE,48,0.0,12.0,89,0.00,,,0.02,Wunderground v.1.13,2013-09-21 10:49:00,
2013-09-21 05:55:00,77.0,73.5,29.69,NE,48,0.0,12.0,89,0.00,,,0.02,Wunderground v.1.13,2013-09-21 10:55:00,
2013-09-21 06:01:00,77.0,73.5,29.69,NE,48,0.0,12.0,89,0.00,,,0.02,Wunderground v.1.13,2013-09-21 11:01:00,
2013-09-21 06:06:00,77.0,73.5,29.69,NE,48,0.0,12.0,89,0.00,,,0.02,Wunderground v.1.13,2013-09-21 11:06:00,
2013-09-21 06:11:00,77.0,73.5,29.69,NE,48,0.0,12.0,89,0.00,,,0.02,Wunderground v.1.13,2013-09-21 11:11:00,
2013-09-21 06:16:00,77.0,73.5,29.69,NE,48,0.0,12.0,89,0.00,,,0.02,Wunderground v.1.13,2013-09-21 11:16:00,
2013-09-21 06:22:00,77.0,73.5,29.69,NE,48,0.0,12.0,89,0.00,,,0.02,Wunderground v.1.13,2013-09-21 11:22:00,
2013-09-21 06:27:00,77.0,73.8,29.69,NE,48,0.0,12.0,90,0.00,,,0.02,Wunderground v.1.13,2013-09-21 11:27:00,
2013-09-21 06:32:00,77.0,73.8,29.69,NE,48,0.0,12.0,90,0.00,,,0.02,Wunderground v.1.13,2013-09-21 11:32:00,
2013-09-21 06:38:00,77.0,73.8,29.69,NE,48,0.0,12.0,90,0.00,,,0.02,Wunderground v.1.13,2013-09-21 11:38:00,
2013-09-21 06:43:00,77.0,73.8,29.69,NE,48,0.0,12.0,90,0.00,,,0.02,Wunderground v.1.13,2013-09-21 11:43:00,
2013-09-21 06:48:00,77.0,73.8,29.69,NE,48,0.0,12.0,90,0.00,,,0.02,Wunderground v.1.13,2013-09-21 11:48:00,
2013-09-21 06:53:00,77.0,73.8,29.69,NE,48,0.0,12.0,90,0.00,,,0.02,Wunderground v.1.13,2013-09-21 11:53:00,
2013-09-21 06:59:00,77.2,74.0,29.69,NE,48,0.0,12.0,90,0.00,,,0.02,Wunderground v.1.13,2013-09-21 11:59:00,
2013-09-21 07:04:00,77.2,74.0,29.69,NE,48,0.0,12.0,90,0.00,,,0.02,Wunderground v.1.13,2013-09-21 12:04:00,
2013-09-21 07:09:00,77.2,74.0,29.69,NE,48,0.0,12.0,90,0.00,,,0.02,Wunderground v.1.13,2013-09-21 12:09:00,
2013-09-21 07:15:00,77.2,74.0,29.69,NE,48,0.0,12.0,90,0.00,,,0.02,Wunderground v.1.13,2013-09-21 12:15:00,
2013-09-21 07:20:00,77.2,74.0,29.69,NE,48,0.0,12.0,90,0.00,,,0.02,Wunderground v.1.13,2013-09-21 12:20:00,
2013-09-21 07:25:00,77.2,74.0,29.69,NE,48,0.0,12.0,90,0.00,,,0.02,Wunderground v.1.13,2013-09-21 12:25:00,
2013-09-21 07:31:00,77.4,74.2,29.69,NE,48,0.0,12.0,90,0.00,,,0.02,Wunderground v.1.13,2013-09-21 12:31:00,
2013-09-21 07:36:00,77.4,74.2,29.69,NE,48,0.0,12.0,90,0.00,,,0.02,Wunderground v.1.13,2013-09-21 12:36:00,
2013-09-21 07:41:00,77.4,74.2,29.70,NE,48,0.0,12.0,90,0.00,,,0.02,Wunderground v.1.13,2013-09-21 12:41:00,
2013-09-21 07:46:00,77.4,74.6,29.70,NE,48,0.0,12.0,91,0.00,,,0.02,Wunderground v.1.13,2013-09-21 12:46:00,
2013-09-21 07:52:00,77.6,74.8,29.70,NE,48,0.0,12.0,91,0.00,,,0.02,Wunderground v.1.13,2013-09-21 12:52:00,
2013-09-21 07:57:00,77.6,74.8,29.70,NE,48,0.0,12.0,91,0.00,,,0.02,Wunderground v.1.13,2013-09-21 12:57:00,
2013-09-21 08:03:00,77.6,74.8,29.70,NE,48,0.0,12.0,91,0.00,,,0.02,Wunderground v.1.13,2013-09-21 13:03:00,
2013-09-21 08:08:00,77.7,74.9,29.69,NE,48,0.0,12.0,91,0.00,,,0.02,Wunderground v.1.13,2013-09-21 13:08:00,
2013-09-21 08:13:00,77.7,74.9,29.69,NE,48,0.0,12.0,91,0.00,,,0.02,Wunderground v.1.13,2013-09-21 13:13:00,
2013-09-21 08:19:00,77.7,74.9,29.69,NE,48,0.0,12.0,91,0.00,,,0.02,Wunderground v.1.13,2013-09-21 13:19:00,
2013-09-21 08:24:00,77.7,74.9,29.69,NE,48,0.0,12.0,91,0.00,,,0.02,Wunderground v.1.13,2013-09-21 13:24:00,
2013-09-21 08:30:00,77.7,74.9,29.69,NE,48,0.0,12.0,91,0.00,,,0.02,Wunderground v.1.13,2013-09-21 13:30:00,
2013-09-21 08:35:00,77.9,75.1,29.69,NE,48,0.0,12.0,91,0.00,,,0.02,Wunderground v.1.13,2013-09-21 13:35:00,
2013-09-21 08:40:00,77.9,75.1,29.69,NE,48,0.0,12.0,91,0.00,,,0.02,Wunderground v.1.13,2013-09-21 13:40:00,
2013-09-21 08:45:00,78.1,75.3,29.69,NE,48,0.0,12.0,91,0.00,,,0.02,Wunderground v.1.13,2013-09-21 13:45:00,
2013-09-21 08:50:00,78.1,75.3,29.69,NE,48,0.0,12.0,91,0.00,,,0.02,Wunderground v.1.13,2013-09-21 13:50:00,
2013-09-21 08:55:00,78.1,75.3,29.69,NE,48,0.0,12.0,91,0.00,,,0.02,Wunderground v.1.13,2013-09-21 13:55:00,
2013-09-21 09:01:00,78.3,75.5,29.69,NE,48,0.0,12.0,91,0.00,,,0.02,Wunderground v.1.13,2013-09-21 14:01:00,
2013-09-21 09:06:00,78.3,75.5,29.69,NE,48,0.0,12.0,91,0.00,,,0.02,Wunderground v.1.13,2013-09-21 14:06:00,
2013-09-21 09:11:00,78.3,75.5,29.70,NE,48,0.0,12.0,91,0.00,,,0.02,Wunderground v.1.13,2013-09-21 14:11:00,
2013-09-21 09:16:00,78.3,75.5,29.70,NE,48,0.0,12.0,91,0.00,,,0.02,Wunderground v.1.13,2013-09-21 14:16:00,
2013-09-21 09:21:00,78.5,75.7,29.70,NE,48,0.0,12.0,91,0.00,,,0.02,Wunderground v.1.13,2013-09-21 14:21:00,
2013-09-21 09:27:00,78.5,75.7,29.70,NE,48,0.0,12.0,91,0.00,,,0.02,Wunderground v.1.13,2013-09-21 14:27:00,
2013-09-21 09:32:00,78.6,75.8,29.70,NE,48,0.0,12.0,91,0.00,,,0.02,Wunderground v.1.13,2013-09-21 14:32:00,
2013-09-21 09:37:00,78.5,75.3,29.71,NE,48,0.0,12.0,90,0.00,,,0.02,Wunderground v.1.13,2013-09-21 14:37:00,
2013-09-21 09:43:00,78.6,75.8,29.71,NE,48,0.0,12.0,91,0.00,,,0.03,Wunderground v.1.13,2013-09-21 14:43:00,
2013-09-21 09:48:00,78.6,75.8,29.71,NE,48,0.0,12.0,91,0.00,,,0.03,Wunderground v.1.13,2013-09-21 14:48:00,
2013-09-21 09:53:00,78.6,75.4,29.71,NE,48,0.0,12.0,90,0.00,,,0.03,Wunderground v.1.13,2013-09-21 14:53:00,
2013-09-21 09:58:00,78.6,75.4,29.71,NE,48,0.0,12.0,90,0.00,,,0.03,Wunderground v.1.13,2013-09-21 14:58:00,
2013-09-21 10:04:00,78.6,75.4,29.71,NE,48,0.0,12.0,90,0.00,,,0.03,Wunderground v.1.13,2013-09-21 15:04:00,
2013-09-21 10:09:00,78.6,75.4,29.71,NE,48,0.0,12.0,90,0.00,,,0.03,Wunderground v.1.13,2013-09-21 15:09:00,
2013-09-21 10:14:00,78.6,75.4,29.71,NE,48,0.0,12.0,90,0.00,,,0.03,Wunderground v.1.13,2013-09-21 15:14:00,
2013-09-21 10:19:00,78.6,75.4,29.71,NE,48,0.0,12.0,90,0.00,,,0.03,Wunderground v.1.13,2013-09-21 15:19:00,
2013-09-21 10:25:00,78.8,75.6,29.70,NE,40,0.0,12.0,90,0.00,,,0.03,Wunderground v.1.13,2013-09-21 15:25:00,
2013-09-21 10:30:00,78.8,75.3,29.70,NW,312,1.0,12.0,89,0.21,,,0.07,Wunderground v.1.13,2013-09-21 15:30:00,
2013-09-21 10:35:00,78.5,75.0,29.70,West,264,2.0,2.0,89,0.13,,,0.08,Wunderground v.1.13,2013-09-21 15:35:00,
2013-09-21 10:40:00,78.5,75.3,29.70,West,264,0.0,12.0,90,0.12,,,0.09,Wunderground v.1.13,2013-09-21 15:40:00,
2013-09-21 10:46:00,78.5,75.3,29.70,West,264,0.0,12.0,90,0.06,,,0.09,Wunderground v.1.13,2013-09-21 15:46:00,
2013-09-21 10:51:00,78.6,75.4,29.70,NW,316,0.0,12.0,90,0.04,,,0.09,Wunderground v.1.13,2013-09-21 15:51:00,
2013-09-21 10:57:00,78.6,75.4,29.71,WNW,296,2.0,12.0,90,0.04,,,0.10,Wunderground v.1.13,2013-09-21 15:57:00,
2013-09-21 11:02:00,78.1,74.6,29.71,West,272,4.0,12.0,89,0.46,,,0.13,Wunderground v.1.13,2013-09-21 16:02:00,
2013-09-21 11:07:00,77.6,74.1,29.71,NNW,330,5.0,12.0,89,0.08,,,0.13,Wunderground v.1.13,2013-09-21 16:07:00,
2013-09-21 11:13:00,77.2,73.7,29.71,NNW,340,4.0,12.0,89,0.05,,,0.13,Wunderground v.1.13,2013-09-21 16:13:00,
2013-09-21 11:18:00,76.7,73.2,29.71,WNW,302,4.0,12.0,89,0.05,,,0.14,Wunderground v.1.13,2013-09-21 16:18:00,
2013-09-21 11:24:00,76.7,73.9,29.70,WNW,302,2.0,12.0,91,0.05,,,0.14,Wunderground v.1.13,2013-09-21 16:24:00,
2013-09-21 11:29:00,76.7,73.5,29.70,NNW,330,0.0,12.0,90,0.04,,,0.14,Wunderground v.1.13,2013-09-21 16:29:00,
2013-09-21 11:34:00,76.5,73.0,29.70,NW,313,0.0,12.0,89,0.00,,,0.14,Wunderground v.1.13,2013-09-21 16:34:00,
2013-09-21 11:40:00,76.3,73.1,29.70,NW,309,0.0,12.0,90,0.00,,,0.14,Wunderground v.1.13,2013-09-21 16:40:00,
2013-09-21 11:45:00,76.3,73.1,29.70,NW,320,1.0,1.0,90,0.00,,,0.14,Wunderground v.1.13,2013-09-21 16:45:00,
2013-09-21 11:51:00,76.5,73.3,29.70,WNW,291,1.0,1.0,90,0.00,,,0.14,Wunderground v.1.13,2013-09-21 16:51:00,
2013-09-21 11:57:00,76.7,73.5,29.69,NW,322,1.0,12.0,90,0.00,,,0.14,Wunderground v.1.13,2013-09-21 16:57:00,
2013-09-21 12:02:00,76.8,73.6,29.69,NNW,328,3.0,12.0,90,0.00,,,0.14,Wunderground v.1.13,2013-09-21 17:02:00,
2013-09-21 12:08:00,76.8,73.6,29.69,NW,320,3.0,12.0,90,0.00,,,0.14,Wunderground v.1.13,2013-09-21 17:08:00,
2013-09-21 12:13:00,76.8,73.3,29.69,NW,305,2.0,12.0,89,0.00,,,0.14,Wunderground v.1.13,2013-09-21 17:13:00,
2013-09-21 12:18:00,76.8,73.6,29.69,West,271,2.0,12.0,90,0.00,,,0.14,Wunderground v.1.13,2013-09-21 17:18:00,
2013-09-21 12:24:00,76.7,73.2,29.68,NNW,328,4.0,12.0,89,0.00,,,0.14,Wunderground v.1.13,2013-09-21 17:24:00,
2013-09-21 12:29:00,76.8,73.3,29.68,NW,322,3.0,12.0,89,0.00,,,0.14,Wunderground v.1.13,2013-09-21 17:29:00,
2013-09-21 12:34:00,76.8,73.3,29.68,NW,322,1.0,12.0,89,0.00,,,0.14,Wunderground v.1.13,2013-09-21 17:34:00,
2013-09-21 12:40:00,76.8,73.3,29.68,NW,322,0.0,12.0,89,0.00,,,0.14,Wunderground v.1.13,2013-09-21 17:40:00,
2013-09-21 12:45:00,77.0,73.5,29.68,NW,322,0.0,12.0,89,0.00,,,0.14,Wunderground v.1.13,2013-09-21 17:45:00,
2013-09-21 12:50:00,77.0,73.5,29.68,NW,313,0.0,12.0,89,0.00,,,0.14,Wunderground v.1.13,2013-09-21 17:50:00,
2013-09-21 12:55:00,77.0,73.5,29.68,NW,313,0.0,12.0,89,0.00,,,0.14,Wunderground v.1.13,2013-09-21 17:55:00,
2013-09-21 13:01:00,77.0,73.5,29.68,NW,315,1.0,1.0,89,0.00,,,0.14,Wunderground v.1.13,2013-09-21 18:01:00,
2013-09-21 13:06:00,77.0,73.5,29.68,NW,315,1.0,1.0,89,0.00,,,0.14,Wunderground v.1.13,2013-09-21 18:06:00,
2013-09-21 13:11:00,77.2,73.4,29.68,NW,315,1.0,12.0,88,0.00,,,0.14,Wunderground v.1.13,2013-09-21 18:11:00,
2013-09-21 13:16:00,77.2,73.4,29.68,NW,305,2.0,12.0,88,0.00,,,0.14,Wunderground v.1.13,2013-09-21 18:16:00,
2013-09-21 13:22:00,77.4,73.6,29.68,WNW,294,1.0,12.0,88,0.00,,,0.14,Wunderground v.1.13,2013-09-21 18:22:00,
2013-09-21 13:27:00,77.6,74.1,29.68,WNW,294,0.0,12.0,89,0.00,,,0.14,Wunderground v.1.13,2013-09-21 18:27:00,
2013-09-21 13:32:00,77.6,73.8,29.68,NW,312,0.0,12.0,88,0.00,,,0.14,Wunderground v.1.13,2013-09-21 18:32:00,
2013-09-21 13:38:00,77.6,73.8,29.68,NW,312,0.0,12.0,88,0.00,,,0.14,Wunderground v.1.13,2013-09-21 18:38:00,
2013-09-21 13:43:00,77.6,73.8,29.68,NW,312,1.0,12.0,88,0.00,,,0.14,Wunderground v.1.13,2013-09-21 18:43:00,
2013-09-21 13:48:00,77.7,73.9,29.68,NW,322,0.0,12.0,88,0.00,,,0.14,Wunderground v.1.13,2013-09-21 18:48:00,
2013-09-21 13:54:00,77.7,73.9,29.68,NW,322,0.0,12.0,88,0.00,,,0.14,Wunderground v.1.13,2013-09-21 18:54:00,
2013-09-21 13:59:00,77.7,73.5,29.68,NW,313,1.0,12.0,87,0.00,,,0.14,Wunderground v.1.13,2013-09-21 18:59:00,
2013-09-21 14:05:00,77.6,73.8,29.68,NNW,335,2.0,12.0,88,0.00,,,0.14,Wunderground v.1.13,2013-09-21 19:05:00,
2013-09-21 14:10:00,77.6,73.8,29.67,NW,320,1.0,1.0,88,0.00,,,0.14,Wunderground v.1.13,2013-09-21 19:10:00,
2013-09-21 14:16:00,77.7,73.9,29.67,NW,320,0.0,12.0,88,0.00,,,0.14,Wunderground v.1.13,2013-09-21 19:16:00,
2013-09-21 14:21:00,77.7,73.9,29.67,NW,308,0.0,12.0,88,0.00,,,0.15,Wunderground v.1.13,2013-09-21 19:21:00,
2013-09-21 14:26:00,77.6,73.4,29.67,WNW,296,0.0,12.0,87,0.00,,,0.15,Wunderground v.1.13,2013-09-21 19:26:00,
2013-09-21 14:32:00,77.6,73.4,29.67,West,274,0.0,12.0,87,0.00,,,0.15,Wunderground v.1.13,2013-09-21 19:32:00,
2013-09-21 14:37:00,77.6,73.8,29.66,NW,323,0.0,12.0,88,0.00,,,0.15,Wunderground v.1.13,2013-09-21 19:37:00,
2013-09-21 14:42:00,77.6,73.8,29.66,NW,322,0.0,12.0,88,0.00,,,0.15,Wunderground v.1.13,2013-09-21 19:42:00,
2013-09-21 14:48:00,77.6,73.8,29.66,NW,312,0.0,12.0,88,0.00,,,0.15,Wunderground v.1.13,2013-09-21 19:48:00,
2013-09-21 14:53:00,77.6,73.8,29.66,NW,316,0.0,12.0,88,0.00,,,0.16,Wunderground v.1.13,2013-09-21 19:53:00,
2013-09-21 14:58:00,77.6,73.8,29.66,WNW,295,0.0,12.0,88,0.00,,,0.16,Wunderground v.1.13,2013-09-21 19:58:00,
2013-09-21 15:03:00,77.4,73.6,29.66,WNW,295,0.0,12.0,88,0.00,,,0.16,Wunderground v.1.13,2013-09-21 20:03:00,
2013-09-21 15:09:00,77.4,73.2,29.65,WNW,295,0.0,12.0,87,0.00,,,0.16,Wunderground v.1.13,2013-09-21 20:09:00,
2013-09-21 15:14:00,77.6,73.4,29.65,WNW,295,0.0,12.0,87,0.00,,,0.16,Wunderground v.1.13,2013-09-21 20:14:00,
2013-09-21 15:19:00,77.7,73.5,29.65,WNW,295,0.0,12.0,87,0.00,,,0.16,Wunderground v.1.13,2013-09-21 20:19:00,
2013-09-21 15:24:00,77.7,73.9,29.65,WNW,295,0.0,12.0,88,0.00,,,0.16,Wunderground v.1.13,2013-09-21 20:24:00,
2013-09-21 15:30:00,77.7,73.9,29.65,WNW,295,0.0,12.0,88,0.00,,,0.16,Wunderground v.1.13,2013-09-21 20:30:00,
2013-09-21 15:35:00,77.9,74.1,29.65,WNW,295,0.0,12.0,88,0.00,,,0.16,Wunderground v.1.13,2013-09-21 20:35:00,
2013-09-21 15:41:00,77.9,74.1,29.64,WNW,295,0.0,12.0,88,0.00,,,0.16,Wunderground v.1.13,2013-09-21 20:41:00,
2013-09-21 15:46:00,77.9,74.1,29.64,WNW,295,0.0,12.0,88,0.00,,,0.16,Wunderground v.1.13,2013-09-21 20:46:00,
2013-09-21 15:51:00,77.9,74.1,29.64,WNW,295,0.0,12.0,88,0.00,,,0.16,Wunderground v.1.13,2013-09-21 20:51:00,
2013-09-21 15:56:00,78.1,74.3,29.64,NW,305,0.0,12.0,88,0.00,,,0.16,Wunderground v.1.13,2013-09-21 20:56:00,
2013-09-21 16:02:00,78.1,74.3,29.64,NW,305,0.0,12.0,88,0.00,,,0.16,Wunderground v.1.13,2013-09-21 21:02:00,
2013-09-21 16:08:00,78.3,74.5,29.64,NW,305,0.0,12.0,88,0.00,,,0.16,Wunderground v.1.13,2013-09-21 21:08:00,
2013-09-21 16:13:00,78.3,74.5,29.64,NW,305,0.0,12.0,88,0.00,,,0.16,Wunderground v.1.13,2013-09-21 21:13:00,
2013-09-21 16:19:00,78.3,74.8,29.64,NW,305,0.0,12.0,89,0.00,,,0.16,Wunderground v.1.13,2013-09-21 21:19:00,
2013-09-21 16:24:00,78.5,75.0,29.63,NW,305,0.0,12.0,89,0.00,,,0.16,Wunderground v.1.13,2013-09-21 21:24:00,
2013-09-21 16:29:00,78.5,74.6,29.63,NW,305,0.0,12.0,88,0.00,,,0.16,Wunderground v.1.13,2013-09-21 21:29:00,
2013-09-21 16:34:00,78.5,74.6,29.63,NW,305,0.0,12.0,88,0.00,,,0.16,Wunderground v.1.13,2013-09-21 21:34:00,
2013-09-21 16:39:00,78.3,74.5,29.63,NW,305,0.0,12.0,88,0.00,,,0.16,Wunderground v.1.13,2013-09-21 21:39:00,
2013-09-21 16:44:00,78.3,74.5,29.63,NW,305,0.0,12.0,88,0.00,,,0.16,Wunderground v.1.13,2013-09-21 21:44:00,
2013-09-21 16:49:00,78.5,74.6,29.63,NW,305,0.0,12.0,88,0.00,,,0.16,Wunderground v.1.13,2013-09-21 21:49:00,
2013-09-21 16:54:00,78.5,74.6,29.63,NW,305,0.0,12.0,88,0.00,,,0.16,Wunderground v.1.13,2013-09-21 21:54:00,
2013-09-21 16:59:00,78.3,74.5,29.63,NW,305,0.0,12.0,88,0.00,,,0.16,Wunderground v.1.13,2013-09-21 21:59:00,
2013-09-21 17:05:00,78.1,74.3,29.63,NW,305,0.0,12.0,88,0.00,,,0.16,Wunderground v.1.13,2013-09-21 22:05:00,
2013-09-21 17:10:00,78.1,73.9,29.63,NW,305,0.0,12.0,87,0.00,,,0.16,Wunderground v.1.13,2013-09-21 22:10:00,
2013-09-21 17:15:00,77.9,73.7,29.63,NW,305,0.0,12.0,87,0.00,,,0.16,Wunderground v.1.13,2013-09-21 22:15:00,
2013-09-21 17:20:00,77.9,73.7,29.63,NNW,337,0.0,12.0,87,0.00,,,0.16,Wunderground v.1.13,2013-09-21 22:20:00,
2013-09-21 17:25:00,77.7,73.5,29.62,WNW,296,1.0,1.0,87,0.00,,,0.16,Wunderground v.1.13,2013-09-21 22:25:00,
2013-09-21 17:30:00,77.9,73.7,29.62,WNW,296,0.0,12.0,87,0.00,,,0.16,Wunderground v.1.13,2013-09-21 22:30:00,
2013-09-21 17:36:00,77.9,73.7,29.62,WNW,296,0.0,12.0,87,0.00,,,0.16,Wunderground v.1.13,2013-09-21 22:36:00,
2013-09-21 17:41:00,77.9,73.7,29.62,WNW,296,0.0,12.0,87,0.00,,,0.16,Wunderground v.1.13,2013-09-21 22:41:00,
2013-09-21 17:46:00,77.9,73.7,29.62,WNW,296,0.0,12.0,87,0.00,,,0.16,Wunderground v.1.13,2013-09-21 22:46:00,
2013-09-21 17:51:00,77.7,73.5,29.63,WNW,296,0.0,12.0,87,0.00,,,0.16,Wunderground v.1.13,2013-09-21 22:51:00,
2013-09-21 17:56:00,77.7,73.5,29.63,WNW,296,0.0,12.0,87,0.00,,,0.16,Wunderground v.1.13,2013-09-21 22:56:00,
2013-09-21 18:02:00,77.7,73.5,29.63,WNW,296,0.0,12.0,87,0.00,,,0.16,Wunderground v.1.13,2013-09-21 23:02:00,
2013-09-21 18:07:00,77.9,73.7,29.63,WNW,296,0.0,12.0,87,0.00,,,0.16,Wunderground v.1.13,2013-09-21 23:07:00,
2013-09-21 18:12:00,77.7,73.5,29.63,WNW,296,0.0,12.0,87,0.00,,,0.16,Wunderground v.1.13,2013-09-21 23:12:00,
2013-09-21 18:18:00,77.7,73.5,29.63,WNW,296,0.0,12.0,87,0.00,,,0.17,Wunderground v.1.13,2013-09-21 23:18:00,
2013-09-21 18:24:00,77.7,73.9,29.63,WNW,296,0.0,12.0,88,0.00,,,0.17,Wunderground v.1.13,2013-09-21 23:24:00,
2013-09-21 18:30:00,77.7,73.9,29.63,WNW,296,0.0,12.0,88,0.00,,,0.17,Wunderground v.1.13,2013-09-21 23:30:00,
2013-09-21 18:35:00,77.6,73.8,29.63,WNW,296,0.0,12.0,88,0.00,,,0.17,Wunderground v.1.13,2013-09-21 23:35:00,
2013-09-21 18:41:00,77.6,73.8,29.63,WNW,298,0.0,12.0,88,0.00,,,0.17,Wunderground v.1.13,2013-09-21 23:41:00,
2013-09-21 18:46:00,77.4,73.6,29.63,WNW,298,0.0,12.0,88,0.00,,,0.17,Wunderground v.1.13,2013-09-21 23:46:00,
2013-09-21 18:51:00,77.2,73.4,29.63,WNW,298,0.0,12.0,88,0.00,,,0.17,Wunderground v.1.13,2013-09-21 23:51:00,
2013-09-21 18:56:00,77.2,73.4,29.63,WNW,298,0.0,12.0,88,0.00,,,0.17,Wunderground v.1.13,2013-09-21 23:56:00,
2013-09-21 19:02:00,77.0,73.2,29.63,WNW,298,0.0,12.0,88,0.00,,,0.17,Wunderground v.1.13,2013-09-22 00:02:00,
2013-09-21 19:07:00,77.2,73.4,29.64,WNW,298,0.0,12.0,88,0.00,,,0.17,Wunderground v.1.13,2013-09-22 00:07:00,
2013-09-21 19:12:00,77.0,73.2,29.64,WNW,298,0.0,12.0,88,0.00,,,0.17,Wunderground v.1.13,2013-09-22 00:12:00,
2013-09-21 19:17:00,77.0,73.2,29.64,WNW,298,0.0,12.0,88,0.00,,,0.17,Wunderground v.1.13,2013-09-22 00:17:00,
2013-09-21 19:23:00,76.8,73.3,29.64,WNW,298,0.0,12.0,89,0.00,,,0.17,Wunderground v.1.13,2013-09-22 00:23:00,
2013-09-21 19:28:00,77.0,73.5,29.64,WNW,298,0.0,12.0,89,0.00,,,0.17,Wunderground v.1.13,2013-09-22 00:28:00,
2013-09-21 19:34:00,77.0,73.5,29.64,WNW,298,0.0,12.0,89,0.00,,,0.17,Wunderground v.1.13,2013-09-22 00:34:00,
2013-09-21 19:39:00,76.8,73.3,29.64,WNW,298,0.0,12.0,89,0.00,,,0.17,Wunderground v.1.13,2013-09-22 00:39:00,
2013-09-21 19:44:00,76.8,73.3,29.64,WNW,298,0.0,12.0,89,0.00,,,0.17,Wunderground v.1.13,2013-09-22 00:44:00,
2013-09-21 19:50:00,76.7,73.2,29.64,WNW,298,0.0,12.0,89,0.00,,,0.17,Wunderground v.1.13,2013-09-22 00:50:00,
2013-09-21 19:55:00,76.7,73.2,29.64,WNW,298,0.0,12.0,89,0.00,,,0.17,Wunderground v.1.13,2013-09-22 00:55:00,
2013-09-21 20:01:00,76.7,73.2,29.64,WNW,298,0.0,12.0,89,0.00,,,0.17,Wunderground v.1.13,2013-09-22 01:01:00,
2013-09-21 20:07:00,76.5,73.0,29.64,WNW,298,0.0,12.0,89,0.00,,,0.17,Wunderground v.1.13,2013-09-22 01:07:00,
2013-09-21 20:12:00,76.5,73.0,29.64,WNW,298,0.0,12.0,89,0.00,,,0.17,Wunderground v.1.13,2013-09-22 01:12:00,
2013-09-21 20:17:00,76.5,73.3,29.64,WNW,298,0.0,12.0,90,0.00,,,0.17,Wunderground v.1.13,2013-09-22 01:17:00,
2013-09-21 20:22:00,76.7,73.5,29.65,WNW,298,0.0,12.0,90,0.00,,,0.17,Wunderground v.1.13,2013-09-22 01:22:00,
2013-09-21 20:28:00,76.7,73.5,29.65,WNW,298,0.0,12.0,90,0.00,,,0.17,Wunderground v.1.13,2013-09-22 01:28:00,
2013-09-21 20:33:00,76.7,73.2,29.65,WNW,298,0.0,12.0,89,0.00,,,0.17,Wunderground v.1.13,2013-09-22 01:33:00,
2013-09-21 20:38:00,76.5,73.0,29.66,WNW,298,0.0,12.0,89,0.00,,,0.17,Wunderground v.1.13,2013-09-22 01:38:00,
2013-09-21 20:44:00,76.5,73.3,29.66,WNW,298,0.0,12.0,90,0.00,,,0.17,Wunderground v.1.13,2013-09-22 01:44:00,
2013-09-21 20:49:00,76.5,73.3,29.66,NNE,18,1.0,12.0,90,0.00,,,0.17,Wunderground v.1.13,2013-09-22 01:49:00,
2013-09-21 20:54:00,76.3,72.8,29.66,NE,42,3.0,12.0,89,0.00,,,0.17,Wunderground v.1.13,2013-09-22 01:54:00,
2013-09-21 21:00:00,76.0,72.5,29.66,NE,41,1.0,12.0,89,0.00,,,0.17,Wunderground v.1.13,2013-09-22 02:00:00,
2013-09-21 21:05:00,75.6,72.1,29.66,NE,34,1.0,12.0,89,0.00,,,0.17,Wunderground v.1.13,2013-09-22 02:05:00,
2013-09-21 21:11:00,75.3,71.8,29.66,NE,40,3.0,3.0,89,0.00,,,0.17,Wunderground v.1.13,2013-09-22 02:11:00,
2013-09-21 21:16:00,74.9,71.4,29.66,NNE,31,2.0,12.0,89,0.00,,,0.17,Wunderground v.1.13,2013-09-22 02:16:00,
2013-09-21 21:22:00,74.7,71.2,29.67,NNE,30,2.0,3.0,89,0.00,,,0.17,Wunderground v.1.13,2013-09-22 02:22:00,
2013-09-21 21:27:00,74.7,71.2,29.67,NNE,31,1.0,12.0,89,0.00,,,0.17,Wunderground v.1.13,2013-09-22 02:27:00,
2013-09-21 21:32:00,74.6,71.5,29.67,NNE,32,0.0,12.0,90,0.00,,,0.17,Wunderground v.1.13,2013-09-22 02:32:00,
2013-09-21 21:38:00,74.6,71.5,29.66,NNE,27,0.0,12.0,90,0.00,,,0.17,Wunderground v.1.13,2013-09-22 02:38:00,
2013-09-21 21:43:00,74.6,71.5,29.66,NNE,27,0.0,12.0,90,0.00,,,0.17,Wunderground v.1.13,2013-09-22 02:43:00,
2013-09-21 21:48:00,74.6,71.5,29.66,NNE,27,0.0,12.0,90,0.00,,,0.17,Wunderground v.1.13,2013-09-22 02:48:00,
2013-09-21 21:54:00,74.4,71.3,29.66,NNE,27,0.0,12.0,90,0.00,,,0.17,Wunderground v.1.13,2013-09-22 02:54:00,
2013-09-21 21:59:00,74.4,71.3,29.66,NNE,27,0.0,12.0,90,0.00,,,0.17,Wunderground v.1.13,2013-09-22 02:59:00,
2013-09-21 22:05:00,74.4,71.3,29.66,NNE,27,0.0,12.0,90,0.00,,,0.17,Wunderground v.1.13,2013-09-22 03:05:00,
2013-09-21 22:10:00,74.4,71.3,29.66,NNE,27,0.0,12.0,90,0.00,,,0.17,Wunderground v.1.13,2013-09-22 03:10:00,
2013-09-21 22:16:00,74.4,71.3,29.66,NNE,27,0.0,12.0,90,0.00,,,0.17,Wunderground v.1.13,2013-09-22 03:16:00,
2013-09-21 22:21:00,74.2,71.1,29.66,NNE,31,1.0,1.0,90,0.00,,,0.17,Wunderground v.1.13,2013-09-22 03:21:00,
2013-09-21 22:27:00,74.2,71.1,29.66,NNE,25,1.0,12.0,90,0.00,,,0.17,Wunderground v.1.13,2013-09-22 03:27:00,
2013-09-21 22:32:00,74.0,70.9,29.66,NE,38,1.0,12.0,90,0.00,,,0.17,Wunderground v.1.13,2013-09-22 03:32:00,
2013-09-21 22:37:00,74.0,71.2,29.66,NE,35,0.0,12.0,91,0.00,,,0.17,Wunderground v.1.13,2013-09-22 03:37:00,
2013-09-21 22:42:00,74.0,71.2,29.66,NNE,16,1.0,12.0,91,0.00,,,0.17,Wunderground v.1.13,2013-09-22 03:42:00,
2013-09-21 22:48:00,74.0,71.2,29.66,NNE,32,2.0,12.0,91,0.00,,,0.17,Wunderground v.1.13,2013-09-22 03:48:00,
2013-09-21 22:53:00,73.9,71.1,29.67,NE,41,2.0,12.0,91,0.00,,,0.17,Wunderground v.1.13,2013-09-22 03:53:00,
2013-09-21 22:58:00,73.9,71.1,29.67,NNE,31,2.0,12.0,91,0.00,,,0.17,Wunderground v.1.13,2013-09-22 03:58:00,
2013-09-21 23:02:00,73.9,71.1,29.67,NNE,20,2.0,12.0,91,0.00,,,0.17,Wunderground v.1.13,2013-09-22 04:02:00,
2013-09-21 23:04:00,73.9,71.1,29.67,NNE,25,2.0,12.0,91,0.00,,,0.17,Wunderground v.1.13,2013-09-22 04:04:00,
2013-09-21 23:05:00,73.9,71.1,29.67,North,11,2.0,12.0,91,0.00,,,0.17,Wunderground v.1.13,2013-09-22 04:05:00,
2013-09-21 23:10:00,73.9,71.1,29.67,NNE,14,3.0,12.0,91,0.00,,,0.17,Wunderground v.1.13,2013-09-22 04:10:00,
2013-09-21 23:15:00,73.5,70.7,29.67,North,8,4.0,12.0,91,0.00,,,0.17,Wunderground v.1.13,2013-09-22 04:15:00,
2013-09-21 23:21:00,73.5,70.7,29.67,NNE,31,3.0,12.0,91,0.00,,,0.17,Wunderground v.1.13,2013-09-22 04:21:00,
2013-09-21 23:22:00,73.3,70.5,29.67,NNE,31,3.0,12.0,91,0.00,,,0.17,Wunderground v.1.13,2013-09-22 04:22:00,
2013-09-21 23:27:00,73.2,70.4,29.67,NNE,31,2.0,12.0,91,0.00,,,0.17,Wunderground v.1.13,2013-09-22 04:27:00,
2013-09-21 23:33:00,73.2,70.4,29.67,NNE,31,4.0,12.0,91,0.00,,,0.17,Wunderground v.1.13,2013-09-22 04:33:00,
2013-09-21 23:38:00,73.0,70.2,29.67,NE,48,4.0,12.0,91,0.00,,,0.17,Wunderground v.1.13,2013-09-22 04:38:00,
2013-09-21 23:43:00,73.0,70.2,29.67,NNE,28,2.0,12.0,91,0.00,,,0.17,Wunderground v.1.13,2013-09-22 04:43:00,
2013-09-21 23:48:00,72.8,70.0,29.67,NE,40,3.0,12.0,91,0.00,,,0.17,Wunderground v.1.13,2013-09-22 04:48:00,
2013-09-21 23:54:00,72.8,70.0,29.67,NE,37,4.0,12.0,91,0.00,,,0.17,Wunderground v.1.13,2013-09-22 04:54:00,
2013-09-21 23:59:00,72.7,69.9,29.67,NNE,13,1.0,12.0,91,0.00,,,0.17,Wunderground v.1.13,2013-09-22 04:59:00,